Time;durP1;ratioP1;P1;durP2;ratioP2;P2;SDS_P1;SDS_P2;PMS_P1;PMS_P2;Temp;Humidity;BMP_temperature;BMP_pressure;BME280_temperature;BME280_humidity;BME280_pressure;Samples;Min_cycle;Max_cycle;Signal;HPM_P1;HPM_P2
2022/04/12 00:01:13;;;;;;;9.32;5.90;;;;;;;;;;7356191;19;20204;-78
2022/04/12 00:03:42;;;;;;;7.87;5.10;;;;;;;;;;7352827;19;20166;-78
2022/04/12 00:06:17;;;;;;;8.75;5.80;;;;;;;;;;7343369;19;20435;-78
2022/04/12 00:08:49;;;;;;;6.00;4.30;;;;;;;;;;7357715;19;20167;-77
2022/04/12 00:11:19;;;;;;;8.32;5.70;;;;;;;;;;7347367;19;20232;-77
2022/04/12 00:13:50;;;;;;;7.05;4.93;;;;;;;;;;7344017;19;20768;-77
2022/04/12 00:16:22;;;;;;;9.90;4.72;;;;;;;;;;7354011;19;20159;-77
2022/04/12 00:21:38;;;;;;;4.90;4.07;;;;;;;;;;7360716;19;20135;-77
2022/04/12 00:24:08;;;;;;;7.68;4.78;;;;;;;;;;7354844;19;20918;-78
2022/04/12 00:26:38;;;;;;;7.05;4.45;;;;;;;;;;7344342;19;20243;-77
2022/04/12 00:29:12;;;;;;;6.40;4.60;;;;;;;;;;7349756;19;20150;-78
2022/04/12 00:31:44;;;;;;;6.57;4.80;;;;;;;;;;7349672;19;20148;-78
2022/04/12 00:34:16;;;;;;;7.20;4.90;;;;;;;;;;7340900;19;20131;-78
2022/04/12 00:36:50;;;;;;;6.13;4.32;;;;;;;;;;7356810;19;20136;-78
2022/04/12 00:39:22;;;;;;;8.45;5.45;;;;;;;;;;7353461;19;20141;-79
2022/04/12 00:41:54;;;;;;;5.47;4.30;;;;;;;;;;7337197;19;21762;-78
2022/04/12 00:44:23;;;;;;;6.95;4.60;;;;;;;;;;7371565;19;20148;-78
2022/04/12 00:46:55;;;;;;;8.23;5.07;;;;;;;;;;7346405;19;20171;-78
2022/04/12 00:49:29;;;;;;;9.57;4.72;;;;;;;;;;7342484;19;20139;-78
2022/04/12 00:52:07;;;;;;;6.37;4.53;;;;;;;;;;7344269;19;20139;-78
2022/04/12 00:54:41;;;;;;;6.93;4.75;;;;;;;;;;7352132;19;20414;-78
2022/04/12 00:57:11;;;;;;;7.10;5.60;;;;;;;;;;7342380;19;20135;-78
2022/04/12 00:59:41;;;;;;;6.22;4.70;;;;;;;;;;7345455;19;20766;-78
2022/04/12 01:02:11;;;;;;;6.67;4.80;;;;;;;;;;7352407;19;20160;-78
2022/04/12 01:04:40;;;;;;;6.53;4.25;;;;;;;;;;7343844;19;20511;-78
2022/04/12 01:07:13;;;;;;;6.93;4.60;;;;;;;;;;7348424;19;20135;-78
2022/04/12 01:09:45;;;;;;;7.03;4.50;;;;;;;;;;7355132;19;20157;-78
2022/04/12 01:12:21;;;;;;;7.50;4.90;;;;;;;;;;7342400;19;20240;-78
2022/04/12 01:14:52;;;;;;;7.20;4.95;;;;;;;;;;7345957;19;20144;-78
2022/04/12 01:17:24;;;;;;;9.43;4.72;;;;;;;;;;7342000;19;20151;-78
2022/04/12 01:19:54;;;;;;;6.30;4.45;;;;;;;;;;7334101;19;20211;-78
2022/04/12 01:22:27;;;;;;;9.75;4.63;;;;;;;;;;7357206;19;20159;-78
2022/04/12 01:25:00;;;;;;;6.18;4.45;;;;;;;;;;7349683;19;20194;-78
2022/04/12 01:27:30;;;;;;;6.65;4.95;;;;;;;;;;7347929;19;20294;-78
2022/04/12 01:29:59;;;;;;;7.20;5.50;;;;;;;;;;7350966;19;20158;-78
2022/04/12 01:32:31;;;;;;;7.28;5.28;;;;;;;;;;7349164;19;20636;-78
2022/04/12 01:35:01;;;;;;;5.05;4.15;;;;;;;;;;7356670;19;20495;-78
2022/04/12 01:37:32;;;;;;;8.18;4.43;;;;;;;;;;7345466;19;20158;-78
2022/04/12 01:40:06;;;;;;;5.30;3.65;;;;;;;;;;7340840;19;20136;-78
2022/04/12 01:42:35;;;;;;;7.43;4.70;;;;;;;;;;7357560;19;20295;-78
2022/04/12 01:45:05;;;;;;;7.13;5.40;;;;;;;;;;7342336;19;20140;-78
2022/04/12 01:47:35;;;;;;;7.32;4.50;;;;;;;;;;7350142;19;20136;-78
2022/04/12 01:50:04;;;;;;;8.50;4.95;;;;;;;;;;7345613;19;21503;-78
2022/04/12 01:52:40;;;;;;;8.43;4.43;;;;;;;;;;7341922;19;20138;-78
2022/04/12 01:55:12;;;;;;;6.50;4.47;;;;;;;;;;7340837;19;20227;-78
2022/04/12 01:57:47;;;;;;;6.38;4.38;;;;;;;;;;7349877;19;20138;-77
2022/04/12 02:00:19;;;;;;;5.43;4.20;;;;;;;;;;7346400;19;20139;-77
2022/04/12 02:02:51;;;;;;;7.93;4.72;;;;;;;;;;7342481;19;20614;-78
2022/04/12 02:05:24;;;;;;;5.68;4.47;;;;;;;;;;7337068;19;20140;-77
2022/04/12 02:07:55;;;;;;;4.38;3.97;;;;;;;;;;7343891;19;20637;-76
2022/04/12 02:10:28;;;;;;;5.25;3.83;;;;;;;;;;7336057;19;20138;-77
2022/04/12 02:13:00;;;;;;;6.18;4.40;;;;;;;;;;7352309;19;21400;-76
2022/04/12 02:15:33;;;;;;;7.30;4.93;;;;;;;;;;7344561;19;20140;-77
2022/04/12 02:18:03;;;;;;;7.38;4.63;;;;;;;;;;7346621;19;20159;-76
2022/04/12 02:20:32;;;;;;;9.02;4.80;;;;;;;;;;7343886;19;20143;-76
2022/04/12 02:23:02;;;;;;;5.20;4.38;;;;;;;;;;7372850;19;20140;-76
2022/04/12 02:25:39;;;;;;;5.90;4.40;;;;;;;;;;7342548;19;20166;-76
2022/04/12 02:28:12;;;;;;;6.15;4.22;;;;;;;;;;7351694;19;20874;-76
2022/04/12 02:30:43;;;;;;;8.90;4.63;;;;;;;;;;7355520;19;20155;-78
2022/04/12 02:33:15;;;;;;;6.40;4.43;;;;;;;;;;7361528;19;20135;-79
2022/04/12 02:35:49;;;;;;;8.27;4.03;;;;;;;;;;7365339;19;20151;-78
2022/04/12 02:38:21;;;;;;;7.30;4.50;;;;;;;;;;7378126;19;20159;-78
2022/04/12 02:40:56;;;;;;;7.65;4.10;;;;;;;;;;7362988;19;20135;-78
2022/04/12 02:43:27;;;;;;;4.85;4.00;;;;;;;;;;7373633;19;20543;-79
2022/04/12 02:46:01;;;;;;;8.02;5.20;;;;;;;;;;7391431;19;20147;-78
2022/04/12 02:48:33;;;;;;;8.40;4.55;;;;;;;;;;7395703;19;20169;-78
2022/04/12 02:51:08;;;;;;;6.53;5.05;;;;;;;;;;7349649;19;20130;-77
2022/04/12 02:53:37;;;;;;;7.25;4.90;;;;;;;;;;7361498;19;20131;-78
2022/04/12 02:56:12;;;;;;;7.68;4.38;;;;;;;;;;7356125;19;20646;-78
2022/04/12 02:58:44;;;;;;;7.82;4.53;;;;;;;;;;7369275;19;20139;-78
2022/04/12 03:01:34;;;;;;;12.55;8.32;;;;;;;;;;7361894;19;20159;-79
2022/04/12 03:04:03;;;;;;;8.77;5.05;;;;;;;;;;7359069;19;20171;-77
2022/04/12 03:06:35;;;;;;;7.05;4.88;;;;;;;;;;7366172;19;20454;-78
2022/04/12 03:09:05;;;;;;;6.68;4.03;;;;;;;;;;7378997;19;20139;-77
2022/04/12 03:11:38;;;;;;;5.55;4.30;;;;;;;;;;7368377;19;20185;-78
2022/04/12 03:14:08;;;;;;;7.80;5.35;;;;;;;;;;7358943;19;20491;-79
2022/04/12 03:16:38;;;;;;;7.53;4.60;;;;;;;;;;7348622;19;20132;-79
2022/04/12 03:19:07;;;;;;;6.60;5.40;;;;;;;;;;7371203;19;20150;-79
2022/04/12 03:21:42;;;;;;;6.25;4.70;;;;;;;;;;7357609;19;20149;-78
2022/04/12 03:24:14;;;;;;;5.75;4.70;;;;;;;;;;7353680;19;20138;-79
2022/04/12 03:26:49;;;;;;;7.18;4.65;;;;;;;;;;7346396;19;20155;-79
2022/04/12 03:29:19;;;;;;;7.72;5.03;;;;;;;;;;7353106;19;20733;-79
2022/04/12 03:31:57;;;;;;;7.28;4.90;;;;;;;;;;7346018;19;20969;-78
2022/04/12 03:34:29;;;;;;;5.75;4.75;;;;;;;;;;7349579;19;20164;-79
2022/04/12 03:36:59;;;;;;;6.25;4.90;;;;;;;;;;7343311;19;20140;-78
2022/04/12 03:39:28;;;;;;;8.07;4.30;;;;;;;;;;7359148;19;20252;-79
2022/04/12 03:42:04;;;;;;;7.50;5.07;;;;;;;;;;7342647;19;20146;-78
2022/04/12 03:44:34;;;;;;;7.95;5.00;;;;;;;;;;7347885;19;20143;-78
2022/04/12 03:47:03;;;;;;;6.68;4.82;;;;;;;;;;7350178;19;20159;-79
2022/04/12 03:49:38;;;;;;;7.93;5.00;;;;;;;;;;7343330;19;20157;-79
2022/04/12 03:52:09;;;;;;;7.72;5.30;;;;;;;;;;7338268;19;20140;-77
2022/04/12 03:54:43;;;;;;;6.90;5.10;;;;;;;;;;7341143;19;20152;-77
2022/04/12 03:57:18;;;;;;;7.55;5.18;;;;;;;;;;7340447;19;21570;-77
2022/04/12 03:59:50;;;;;;;6.97;5.80;;;;;;;;;;7339598;19;20146;-77
2022/04/12 04:02:20;;;;;;;7.38;6.68;;;;;;;;;;7348488;19;20171;-77
2022/04/12 04:04:50;;;;;;;6.88;5.20;;;;;;;;;;7341049;19;20150;-78
2022/04/12 04:07:19;;;;;;;10.13;6.65;;;;;;;;;;7338229;19;20252;-77
2022/04/12 04:09:49;;;;;;;7.20;5.38;;;;;;;;;;7343848;19;20132;-77
2022/04/12 04:12:22;;;;;;;6.63;5.40;;;;;;;;;;7352744;19;20967;-77
2022/04/12 04:15:15;;;;;;;8.50;6.15;;;;;;;;;;7351321;19;20159;-77
2022/04/12 04:17:47;;;;;;;7.95;6.13;;;;;;;;;;7342360;19;20163;-77
2022/04/12 04:20:20;;;;;;;7.03;5.38;;;;;;;;;;7351189;19;20223;-78
2022/04/12 04:22:52;;;;;;;7.65;6.10;;;;;;;;;;7347451;19;20217;-78
2022/04/12 04:25:21;;;;;;;7.18;5.28;;;;;;;;;;7347067;19;20131;-77
2022/04/12 04:27:58;;;;;;;8.02;6.65;;;;;;;;;;7361994;19;20145;-78
2022/04/12 04:30:32;;;;;;;8.48;5.95;;;;;;;;;;7345850;19;20154;-78
2022/04/12 04:33:04;;;;;;;11.02;7.40;;;;;;;;;;7369427;19;20227;-78
2022/04/12 04:35:34;;;;;;;7.45;5.25;;;;;;;;;;7376619;19;20573;-78
2022/04/12 04:38:03;;;;;;;9.00;5.70;;;;;;;;;;7374764;19;20132;-78
2022/04/12 04:40:35;;;;;;;8.23;5.20;;;;;;;;;;7380804;19;20139;-77
2022/04/12 04:43:11;;;;;;;8.10;5.80;;;;;;;;;;7377563;19;20131;-78
2022/04/12 04:45:43;;;;;;;5.95;4.95;;;;;;;;;;7375027;19;20143;-78
2022/04/12 04:48:13;;;;;;;11.85;5.70;;;;;;;;;;7378430;19;20135;-78
2022/04/12 04:50:45;;;;;;;10.40;7.45;;;;;;;;;;7375450;19;20901;-79
2022/04/12 04:53:15;;;;;;;11.48;7.63;;;;;;;;;;7377025;19;20762;-78
2022/04/12 04:55:46;;;;;;;10.80;7.18;;;;;;;;;;7378200;19;20169;-77
2022/04/12 04:58:18;;;;;;;9.73;6.80;;;;;;;;;;7374678;19;20973;-77
2022/04/12 05:00:48;;;;;;;8.90;6.28;;;;;;;;;;7376031;19;20506;-78
2022/04/12 05:03:22;;;;;;;15.13;6.75;;;;;;;;;;7372488;19;20163;-77
2022/04/12 05:05:54;;;;;;;6.72;5.50;;;;;;;;;;7374451;19;20504;-77
2022/04/12 05:08:26;;;;;;;9.13;5.28;;;;;;;;;;7377120;19;20143;-77
2022/04/12 05:10:55;;;;;;;8.50;5.22;;;;;;;;;;7368270;19;20147;-77
2022/04/12 05:13:32;;;;;;;6.70;6.00;;;;;;;;;;7373555;19;20146;-77
2022/04/12 05:16:02;;;;;;;7.97;6.43;;;;;;;;;;7363022;19;20765;-77
2022/04/12 05:18:36;;;;;;;7.68;6.07;;;;;;;;;;7372902;19;20136;-77
2022/04/12 05:21:07;;;;;;;9.05;6.15;;;;;;;;;;7361244;19;20146;-77
2022/04/12 05:23:37;;;;;;;8.73;6.05;;;;;;;;;;7377172;19;20139;-77
2022/04/12 05:26:09;;;;;;;9.40;5.90;;;;;;;;;;7373806;19;20143;-77
2022/04/12 05:28:43;;;;;;;6.85;5.20;;;;;;;;;;7373372;19;20150;-77
2022/04/12 05:31:13;;;;;;;6.95;4.80;;;;;;;;;;7374815;19;20166;-77
2022/04/12 05:33:42;;;;;;;7.82;5.65;;;;;;;;;;7381326;19;20211;-77
2022/04/12 05:36:12;;;;;;;15.07;7.50;;;;;;;;;;7372651;19;20805;-77
2022/04/12 05:38:44;;;;;;;9.75;5.95;;;;;;;;;;7377788;19;20161;-77
2022/04/12 05:41:13;;;;;;;6.97;5.50;;;;;;;;;;7378350;19;20500;-77
2022/04/12 05:43:48;;;;;;;7.75;6.30;;;;;;;;;;7380661;19;20146;-77
2022/04/12 05:46:19;;;;;;;9.15;7.20;;;;;;;;;;7377733;19;20977;-78
2022/04/12 05:48:49;;;;;;;9.20;6.30;;;;;;;;;;7377995;19;20136;-78
2022/04/12 05:51:21;;;;;;;9.25;5.88;;;;;;;;;;7376492;19;20151;-77
2022/04/12 05:53:50;;;;;;;7.82;6.50;;;;;;;;;;7376629;19;20191;-77
2022/04/12 05:56:20;;;;;;;7.28;6.30;;;;;;;;;;7373816;19;20147;-77
2022/04/12 05:58:52;;;;;;;9.68;6.50;;;;;;;;;;7377452;19;20131;-78
2022/04/12 06:01:24;;;;;;;7.00;6.15;;;;;;;;;;7377258;19;20135;-77
2022/04/12 06:03:54;;;;;;;7.15;5.70;;;;;;;;;;7371395;19;20247;-77
2022/04/12 06:06:24;;;;;;;8.95;6.03;;;;;;;;;;7376417;19;20128;-77
2022/04/12 06:08:53;;;;;;;10.43;6.38;;;;;;;;;;7375777;19;20696;-77
2022/04/12 06:11:23;;;;;;;14.40;7.00;;;;;;;;;;7380332;19;20135;-81
2022/04/12 06:13:55;;;;;;;17.55;6.88;;;;;;;;;;7375159;19;20919;-80
2022/04/12 06:16:26;;;;;;;8.52;6.68;;;;;;;;;;7382137;19;20738;-81
2022/04/12 06:19:01;;;;;;;6.45;5.85;;;;;;;;;;7416689;19;20133;-80
2022/04/12 06:21:33;;;;;;;8.20;6.18;;;;;;;;;;7418277;19;20147;-81
2022/04/12 06:24:02;;;;;;;9.10;6.18;;;;;;;;;;7417094;19;20152;-81
2022/04/12 06:26:32;;;;;;;11.70;7.05;;;;;;;;;;7419526;19;20127;-81
2022/04/12 06:29:04;;;;;;;9.95;7.38;;;;;;;;;;7417083;19;20146;-81
2022/04/12 06:31:33;;;;;;;6.90;6.20;;;;;;;;;;7416693;19;20155;-82
2022/04/12 06:34:03;;;;;;;13.02;7.18;;;;;;;;;;7417398;19;20140;-81
2022/04/12 06:36:37;;;;;;;7.60;6.00;;;;;;;;;;7423061;19;20130;-81
2022/04/12 06:39:09;;;;;;;9.00;6.32;;;;;;;;;;7427094;19;20412;-80
2022/04/12 06:41:45;;;;;;;9.93;6.60;;;;;;;;;;7427793;19;20151;-80
2022/04/12 06:44:17;;;;;;;9.77;6.53;;;;;;;;;;7429992;19;20460;-82
2022/04/12 06:47:19;;;;;;;7.50;5.73;;;;;;;;;;7430155;19;20420;-81
2022/04/12 06:49:51;;;;;;;6.40;5.70;;;;;;;;;;7429632;19;20405;-81
2022/04/12 06:52:30;;;;;;;8.10;6.00;;;;;;;;;;7417486;19;20379;-83
2022/04/12 06:55:02;;;;;;;11.87;7.00;;;;;;;;;;7389535;19;20384;-81
2022/04/12 06:57:36;;;;;;;8.43;6.30;;;;;;;;;;7389825;19;20420;-81
2022/04/12 07:00:09;;;;;;;11.43;6.90;;;;;;;;;;7382878;19;20821;-81
2022/04/12 07:02:42;;;;;;;8.07;6.40;;;;;;;;;;7381082;19;20395;-82
2022/04/12 07:05:16;;;;;;;7.73;6.80;;;;;;;;;;7381332;19;20590;-82
2022/04/12 07:07:48;;;;;;;12.00;6.67;;;;;;;;;;7376072;19;20433;-82
2022/04/12 07:10:19;;;;;;;7.60;6.00;;;;;;;;;;7376385;19;20489;-82
2022/04/12 07:12:53;;;;;;;8.60;6.17;;;;;;;;;;7376989;19;20417;-81
2022/04/12 07:15:25;;;;;;;9.00;7.23;;;;;;;;;;7376695;19;20383;-78
2022/04/12 07:17:55;;;;;;;9.60;6.00;;;;;;;;;;7374880;19;20388;-78
2022/04/12 07:20:24;;;;;;;8.00;6.00;;;;;;;;;;7365743;19;20404;-77
2022/04/12 07:22:56;;;;;;;7.50;5.33;;;;;;;;;;7373779;19;20446;-77
2022/04/12 07:25:26;;;;;;;9.37;5.50;;;;;;;;;;7373398;19;20371;-77
2022/04/12 07:27:58;;;;;;;7.43;5.77;;;;;;;;;;7374255;19;20400;-78
2022/04/12 07:30:33;;;;;;;8.77;6.30;;;;;;;;;;7371042;19;20424;-77
2022/04/12 07:33:25;;;;;;;8.40;5.40;;;;;;;;;;7370886;19;20970;-77
2022/04/12 07:35:57;;;;;;;8.00;5.80;;;;;;;;;;7372344;19;20380;-77
2022/04/12 07:38:27;;;;;;;8.67;5.90;;;;;;;;;;7375530;19;20396;-78
2022/04/12 07:40:59;;;;;;;7.13;6.10;;;;;;;;;;7371136;19;20412;-77
2022/04/12 07:43:30;;;;;;;10.73;5.80;;;;;;;;;;7374123;19;21882;-77
2022/04/12 07:46:03;;;;;;;6.13;4.83;;;;;;;;;;7373698;19;20407;-77
2022/04/12 07:48:35;;;;;;;5.80;5.20;;;;;;;;;;7369829;19;20452;-77
2022/04/12 07:51:05;;;;;;;5.43;4.80;;;;;;;;;;7376061;19;20895;-83
2022/04/12 07:53:35;;;;;;;6.53;4.97;;;;;;;;;;7375202;19;20413;-82
2022/04/12 07:56:07;;;;;;;6.10;5.50;;;;;;;;;;7374109;19;20505;-82
2022/04/12 07:58:36;;;;;;;7.30;6.60;;;;;;;;;;7377645;19;20412;-82
2022/04/12 08:01:29;;;;;;;9.47;5.77;;;;;;;;;;7374953;19;20404;-82
2022/04/12 08:03:58;;;;;;;5.90;4.70;;;;;;;;;;7379513;19;20511;-82
2022/04/12 08:06:33;;;;;;;9.23;5.00;;;;;;;;;;7381148;19;20975;-82
2022/04/12 08:09:06;;;;;;;11.83;6.03;;;;;;;;;;7382530;19;20443;-82
2022/04/12 08:11:35;;;;;;;9.93;5.43;;;;;;;;;;7383190;19;21140;-82
2022/04/12 08:14:10;;;;;;;8.00;6.10;;;;;;;;;;7383217;19;20396;-82
2022/04/12 08:16:42;;;;;;;6.67;5.57;;;;;;;;;;7379724;19;20968;-80
2022/04/12 08:19:14;;;;;;;7.27;5.30;;;;;;;;;;7380800;19;20423;-82
2022/04/12 08:21:45;;;;;;;7.10;4.90;;;;;;;;;;7380473;19;20427;-76
2022/04/12 08:24:15;;;;;;;5.23;4.60;;;;;;;;;;7380951;19;20387;-78
2022/04/12 08:26:45;;;;;;;7.30;5.07;;;;;;;;;;7380717;19;20420;-78
2022/04/12 08:29:14;;;;;;;8.10;5.30;;;;;;;;;;7377194;19;20408;-77
2022/04/12 08:31:46;;;;;;;6.90;4.80;;;;;;;;;;7379501;19;20956;-78
2022/04/12 08:34:24;;;;;;;5.80;4.90;;;;;;;;;;7378192;19;20784;-75
2022/04/12 08:36:54;;;;;;;5.40;4.03;;;;;;;;;;7376214;19;21037;-76
2022/04/12 08:39:23;;;;;;;7.63;5.33;;;;;;;;;;7380274;19;20459;-76
2022/04/12 08:41:57;;;;;;;8.43;5.43;;;;;;;;;;7379668;19;20395;-76
2022/04/12 08:44:53;;;;;;;5.73;4.33;;;;;;;;;;7377020;19;20404;-75
2022/04/12 08:47:26;;;;;;;6.83;4.77;;;;;;;;;;7377195;19;20462;-76
2022/04/12 08:49:56;;;;;;;7.47;5.47;;;;;;;;;;7376851;19;20419;-76
2022/04/12 08:52:28;;;;;;;9.13;6.53;;;;;;;;;;7377913;19;20434;-76
2022/04/12 08:54:58;;;;;;;8.77;5.20;;;;;;;;;;7379876;19;20849;-78
2022/04/12 08:57:28;;;;;;;8.50;4.60;;;;;;;;;;7380350;19;20439;-78
2022/04/12 08:59:59;;;;;;;10.13;5.60;;;;;;;;;;7375864;19;20420;-77
2022/04/12 09:02:37;;;;;;;11.70;5.50;;;;;;;;;;7377685;19;20438;-78
2022/04/12 09:05:08;;;;;;;6.37;4.50;;;;;;;;;;7378514;19;20512;-77
2022/04/12 09:07:48;;;;;;;14.27;5.03;;;;;;;;;;7375838;19;20419;-78
2022/04/12 09:10:19;;;;;;;11.63;5.10;;;;;;;;;;7379808;19;20479;-78
2022/04/12 09:12:51;;;;;;;12.17;5.10;;;;;;;;;;7378908;19;20792;-78
2022/04/12 09:15:22;;;;;;;8.77;6.33;;;;;;;;;;7377682;19;21597;-79
2022/04/12 09:17:54;;;;;;;7.23;4.80;;;;;;;;;;7376544;19;20408;-79
2022/04/12 09:20:23;;;;;;;6.87;5.00;;;;;;;;;;7378434;19;20403;-78
2022/04/12 09:22:57;;;;;;;8.47;5.83;;;;;;;;;;7374341;19;20421;-78
2022/04/12 09:25:32;;;;;;;7.80;5.03;;;;;;;;;;7380924;19;20500;-77
2022/04/12 09:28:05;;;;;;;7.73;4.37;;;;;;;;;;7377760;19;20409;-77
2022/04/12 09:30:38;;;;;;;7.60;5.03;;;;;;;;;;7374392;19;20432;-76
2022/04/12 09:33:14;;;;;;;8.43;4.40;;;;;;;;;;7376184;19;20779;-75
2022/04/12 09:35:46;;;;;;;5.10;4.37;;;;;;;;;;7388592;19;20440;-76
2022/04/12 09:38:33;;;;;;;5.10;4.13;;;;;;;;;;7397216;19;20405;-76
2022/04/12 09:41:15;;;;;;;5.23;4.00;;;;;;;;;;7396226;19;20424;-77
2022/04/12 09:43:54;;;;;;;5.57;3.30;;;;;;;;;;7398652;19;20416;-77
2022/04/12 09:46:29;;;;;;;6.03;3.80;;;;;;;;;;7395094;19;20368;-76
2022/04/12 09:49:02;;;;;;;6.27;3.70;;;;;;;;;;7387722;19;20437;-78
2022/04/12 09:51:36;;;;;;;6.27;4.20;;;;;;;;;;7391917;19;20416;-76
2022/04/12 09:54:06;;;;;;;5.63;3.80;;;;;;;;;;7394960;19;20432;-76
2022/04/12 09:56:39;;;;;;;5.23;3.13;;;;;;;;;;7394713;19;20416;-76
2022/04/12 09:59:10;;;;;;;6.70;3.30;;;;;;;;;;7398296;19;20385;-76
2022/04/12 10:01:43;;;;;;;4.63;3.23;;;;;;;;;;7399997;19;20432;-76
2022/04/12 10:04:18;;;;;;;4.53;3.47;;;;;;;;;;7384588;19;20420;-77
2022/04/12 10:06:55;;;;;;;4.00;3.60;;;;;;;;;;7384972;19;20416;-77
2022/04/12 10:09:31;;;;;;;5.67;3.37;;;;;;;;;;7378558;19;20939;-77
2022/04/12 10:12:03;;;;;;;3.20;2.90;;;;;;;;;;7376051;19;20395;-77
2022/04/12 10:14:35;;;;;;;3.60;2.70;;;;;;;;;;7378714;19;20415;-77
2022/04/12 10:17:07;;;;;;;3.63;3.00;;;;;;;;;;7377702;19;21058;-77
2022/04/12 10:19:40;;;;;;;3.97;2.63;;;;;;;;;;7364623;19;20995;-76
2022/04/12 10:22:09;;;;;;;4.70;3.30;;;;;;;;;;7372661;19;20412;-76
2022/04/12 10:24:40;;;;;;;3.97;2.40;;;;;;;;;;7366093;19;20476;-75
2022/04/12 10:27:10;;;;;;;3.40;2.83;;;;;;;;;;7357903;19;20404;-75
2022/04/12 10:29:42;;;;;;;3.00;2.67;;;;;;;;;;7371361;19;20436;-75
2022/04/12 10:32:17;;;;;;;2.60;2.30;;;;;;;;;;7373088;19;21453;-75
2022/04/12 10:35:03;;;;;;;4.57;2.70;;;;;;;;;;7375372;19;20767;-75
2022/04/12 10:37:35;;;;;;;2.93;2.70;;;;;;;;;;7371350;19;21257;-75
2022/04/12 10:40:08;;;;;;;2.50;2.30;;;;;;;;;;7372801;19;20981;-75
2022/04/12 10:42:40;;;;;;;3.23;2.20;;;7.50;66.00;;;;;;7375214;19;20387;-75
2022/04/12 10:45:14;;;;;;;4.27;2.97;;;32.20;20.00;;;;;;7375284;19;20416;-75
2022/04/12 10:47:46;;;;;;;4.13;2.57;;;31.90;20.40;;;;;;7375420;19;20420;-75
2022/04/12 10:50:20;;;;;;;3.10;2.60;;;31.80;20.30;;;;;;7375186;19;20424;-75
2022/04/12 10:52:54;;;;;;;3.30;2.60;;;31.90;20.10;;;;;;7371813;19;20436;-75
2022/04/12 10:55:26;;;;;;;5.37;3.23;;;32.10;19.70;;;;;;7370846;19;20412;-75
2022/04/12 10:58:14;;;;;;;2.20;2.00;;;33.10;19.30;;;;;;7372285;19;20376;-76
2022/04/12 11:00:45;;;;;;;3.10;2.27;;;33.20;18.90;;;;;;7376464;19;20450;-75
2022/04/12 11:03:16;;;;;;;2.50;2.07;;;33.80;18.70;;;;;;7371210;19;20441;-75
2022/04/12 11:06:06;;;;;;;2.33;1.80;;;33.60;19.00;;;;;;7372533;19;20885;-76
2022/04/12 11:08:48;;;;;;;2.80;1.87;;;33.80;19.10;;;;;;7367350;19;20413;-76
2022/04/12 11:11:26;;;;;;;4.07;2.30;;;35.30;18.50;;;;;;7373697;19;20391;-75
2022/04/12 11:13:57;;;;;;;2.50;2.20;;;34.50;18.10;;;;;;7373430;19;20930;-75
2022/04/12 11:16:29;;;;;;;4.43;1.77;;;34.90;18.00;;;;;;7368176;19;20953;-75
2022/04/12 11:19:00;;;;;;;3.50;2.13;;;34.10;18.30;;;;;;7371981;19;20696;-76
2022/04/12 11:22:01;;;;;;;3.10;2.43;;;34.00;18.60;;;;;;7368728;19;20419;-76
2022/04/12 11:24:33;;;;;;;2.23;1.80;;;31.70;19.60;;;;;;7375820;19;21241;-76
2022/04/12 11:27:10;;;;;;;2.80;1.77;;;30.40;20.80;;;;;;7367489;19;20425;-76
2022/04/12 11:29:44;;;;;;;2.13;1.70;;;30.00;20.90;;;;;;7371507;19;20412;-75
2022/04/12 11:32:14;;;;;;;3.80;2.10;;;29.90;21.00;;;;;;7372737;19;20440;-76
2022/04/12 11:34:44;;;;;;;4.80;2.20;;;29.50;21.60;;;;;;7361431;19;20417;-76
2022/04/12 11:37:20;;;;;;;2.07;1.87;;;29.40;21.90;;;;;;7356876;19;20467;-76
2022/04/12 11:39:52;;;;;;;3.57;1.90;;;29.10;22.00;;;;;;7368299;19;21956;-75
2022/04/12 11:42:21;;;;;;;2.60;1.70;;;29.40;22.30;;;;;;7372853;19;20511;-76
2022/04/12 11:44:57;;;;;;;3.90;2.10;;;29.90;21.90;;;;;;7378014;19;20408;-77
2022/04/12 11:47:33;;;;;;;2.53;1.93;;;30.40;21.70;;;;;;7376066;19;20416;-77
2022/04/12 11:50:17;;;;;;;3.03;1.67;;;30.50;21.40;;;;;;7380592;19;20404;-77
2022/04/12 11:52:51;;;;;;;2.50;1.70;;;29.70;21.90;;;;;;7379735;19;20409;-77
2022/04/12 11:55:27;;;;;;;2.77;1.80;;;29.80;22.20;;;;;;7378579;19;20419;-77
2022/04/12 11:57:56;;;;;;;2.03;1.87;;;29.80;22.30;;;;;;7372873;19;20408;-77
2022/04/12 12:00:29;;;;;;;6.60;1.60;;;30.00;22.10;;;;;;7377869;19;22451;-77
2022/04/12 12:03:01;;;;;;;2.73;1.63;;;30.00;22.00;;;;;;7375895;19;20528;-77
2022/04/12 12:05:34;;;;;;;2.33;1.70;;;29.90;22.40;;;;;;7379303;19;20400;-78
2022/04/12 12:08:04;;;;;;;1.77;1.43;;;29.80;22.50;;;;;;7368608;19;20910;-77
2022/04/12 12:10:38;;;;;;;2.50;1.90;;;29.60;22.60;;;;;;7370949;19;20420;-76
2022/04/12 12:13:10;;;;;;;2.07;1.80;;;29.90;22.70;;;;;;7370356;19;20404;-76
2022/04/12 12:15:42;;;;;;;4.23;1.70;;;29.80;22.80;;;;;;7377827;19;20427;-80
2022/04/12 12:18:15;;;;;;;2.20;1.43;;;29.50;22.80;;;;;;7365211;19;20408;-80
2022/04/12 12:20:48;;;;;;;2.30;1.53;;;29.00;23.50;;;;;;7373651;19;21437;-83
2022/04/12 12:23:20;;;;;;;2.50;1.47;;;29.30;23.60;;;;;;7376080;19;20431;-82
2022/04/12 12:26:00;;;;;;;3.27;1.20;;;29.80;23.30;;;;;;7396616;19;20419;-83
2022/04/12 12:28:31;;;;;;;3.43;1.47;;;29.50;23.40;;;;;;7416962;19;20847;-87
2022/04/12 12:31:02;;;;;;;2.70;1.73;;;29.50;23.20;;;;;;7416679;19;20416;-83
2022/04/12 12:33:41;;;;;;;2.67;1.30;;;29.30;23.30;;;;;;7417240;19;20395;-83
2022/04/12 12:36:21;;;;;;;2.57;1.60;;;28.90;23.60;;;;;;7415981;19;20396;-83
2022/04/12 12:38:51;;;;;;;2.13;1.40;;;28.90;24.00;;;;;;7417073;19;20413;-82
2022/04/12 12:41:31;;;;;;;1.60;1.50;;;28.90;24.00;;;;;;7423283;19;20451;-82
2022/04/12 12:44:02;;;;;;;2.33;1.37;;;29.00;23.90;;;;;;7427468;19;20404;-80
2022/04/12 12:46:34;;;;;;;2.27;1.27;;;28.60;24.10;;;;;;7425325;19;20441;-78
2022/04/12 12:49:10;;;;;;;2.87;1.47;;;28.40;24.60;;;;;;7426234;19;20407;-81
2022/04/12 12:51:45;;;;;;;4.13;1.47;;;28.50;24.50;;;;;;7432726;19;20456;-81
2022/04/12 12:54:18;;;;;;;5.60;1.50;;;28.50;24.60;;;;;;7420657;19;20419;-81
2022/04/12 12:57:09;;;;;;;2.47;1.30;;;28.60;24.30;;;;;;7398711;19;20959;-80
2022/04/12 12:59:39;;;;;;;3.63;1.57;;;28.90;24.10;;;;;;7393344;19;20400;-80
2022/04/12 13:02:12;;;;;;;3.77;1.50;;;28.90;23.80;;;;;;7385431;19;20408;-81
2022/04/12 13:04:54;;;;;;;1.30;1.20;;;29.00;24.10;;;;;;7386393;19;20400;-81
2022/04/12 13:07:33;;;;;;;2.80;1.13;;;29.00;24.00;;;;;;7383656;19;20935;-80
2022/04/12 13:10:13;;;;;;;4.43;1.60;;;29.00;24.00;;;;;;7383356;19;21006;-81
2022/04/12 13:12:49;;;;;;;1.53;1.40;;;28.60;24.00;;;;;;7382666;19;20750;-81
2022/04/12 13:15:21;;;;;;;2.80;1.87;;;28.50;24.10;;;;;;7379886;19;20467;-81
2022/04/12 13:17:53;;;;;;;2.43;1.47;;;28.40;24.20;;;;;;7356341;19;20459;-82
2022/04/12 13:20:25;;;;;;;15.23;2.43;;;28.40;23.90;;;;;;7379431;19;20972;-83
2022/04/12 13:22:54;;;;;;;3.33;1.50;;;28.80;23.70;;;;;;7378826;19;20396;-83
2022/04/12 13:25:26;;;;;;;5.30;1.37;;;28.50;23.70;;;;;;7377651;19;20383;-86
2022/04/12 13:28:00;;;;;;;1.73;1.17;;;28.30;24.10;;;;;;7379475;19;20408;-84
2022/04/12 13:30:30;;;;;;;1.83;1.10;;;28.30;23.70;;;;;;7380279;19;20424;-85
2022/04/12 13:33:00;;;;;;;1.77;1.20;;;28.00;24.20;;;;;;7378871;19;20471;-84
2022/04/12 13:35:34;;;;;;;1.80;1.33;;;27.90;24.30;;;;;;7376893;19;20422;-83
2022/04/12 13:38:09;;;;;;;5.13;2.00;;;27.60;24.10;;;;;;7377630;19;20418;-84
2022/04/12 13:40:38;;;;;;;1.70;1.60;;;27.40;24.90;;;;;;7373885;19;20457;-83
2022/04/12 13:43:11;;;;;;;2.70;1.23;;;27.40;24.70;;;;;;7368436;19;21062;-83
2022/04/12 13:45:41;;;;;;;3.70;1.30;;;27.40;24.70;;;;;;7375572;19;20408;-83
2022/04/12 13:48:15;;;;;;;2.30;1.20;;;27.10;25.00;;;;;;7375031;19;20410;-83
2022/04/12 13:50:45;;;;;;;2.50;1.20;;;26.80;25.10;;;;;;7372862;19;20405;-83
2022/04/12 13:53:15;;;;;;;2.20;1.00;;;26.50;25.40;;;;;;7371672;19;21214;-77
2022/04/12 13:55:46;;;;;;;1.40;1.00;;;26.30;25.50;;;;;;7374644;19;20433;-80
2022/04/12 13:58:18;;;;;;;5.80;2.23;;;26.10;25.80;;;;;;7373823;19;20420;-78
2022/04/12 14:00:51;;;;;;;3.60;1.00;;;26.10;26.10;;;;;;7374639;19;20923;-76
2022/04/12 14:03:23;;;;;;;2.43;1.20;;;25.90;26.00;;;;;;7370077;19;20963;-77
2022/04/12 14:06:15;;;;;;;1.50;1.27;;;25.70;26.30;;;;;;7372843;19;20416;-76
2022/04/12 14:08:47;;;;;;;1.83;1.00;;;25.80;26.70;;;;;;7369343;19;20404;-76
2022/04/12 14:11:16;;;;;;;1.70;1.27;;;25.50;26.30;;;;;;7371489;19;20400;-75
2022/04/12 14:13:51;;;;;;;2.07;1.20;;;25.50;26.30;;;;;;7373901;19;20372;-77
2022/04/12 14:16:23;;;;;;;1.40;1.17;;;25.50;26.50;;;;;;7371608;19;21252;-77
2022/04/12 14:18:55;;;;;;;3.20;1.43;;;25.60;26.60;;;;;;7369676;19;21066;-76
2022/04/12 14:21:24;;;;;;;3.33;1.20;;;25.70;26.40;;;;;;7366330;19;20500;-78
2022/04/12 14:23:54;;;;;;;2.43;1.30;;;25.80;26.30;;;;;;7366855;19;20396;-79
2022/04/12 14:26:27;;;;;;;2.53;1.03;;;25.70;26.50;;;;;;7372224;19;20496;-78
2022/04/12 14:28:59;;;;;;;1.60;1.30;;;25.60;26.60;;;;;;7371793;19;20421;-79
2022/04/12 14:31:30;;;;;;;1.40;0.97;;;25.60;26.20;;;;;;7369786;19;20423;-78
2022/04/12 14:34:00;;;;;;;2.03;1.00;;;25.50;26.60;;;;;;7370140;19;20480;-78
2022/04/12 14:36:29;;;;;;;3.13;1.73;;;25.60;26.40;;;;;;7374260;19;20430;-78
2022/04/12 14:38:59;;;;;;;1.53;1.13;;;25.60;26.90;;;;;;7367430;19;20400;-78
2022/04/12 14:41:31;;;;;;;2.17;1.20;;;25.60;26.60;;;;;;7370353;19;20444;-79